Time;durP1;ratioP1;P1;durP2;ratioP2;P2;SDS_P1;SDS_P2;PMS_P1;PMS_P2;Temp;Humidity;BMP_temperature;BMP_pressure;BME280_temperature;BME280_humidity;BME280_pressure;Samples;Min_cycle;Max_cycle;Signal;HPM_P1;HPM_P2
2021/12/27 00:00:36;;;;;;;11.53;6.90;;;;;;;-3.69;80.19;100070.09;1734003;81;21055;-73
2021/12/27 00:03:04;;;;;;;10.87;7.80;;;;;;;-3.70;80.07;100068.95;1750822;81;21018;-77
2021/12/27 00:05:31;;;;;;;9.30;6.20;;;;;;;-3.72;80.08;100069.57;1748654;81;20936;-79
2021/12/27 00:07:58;;;;;;;17.50;10.97;;;;;;;-3.70;80.21;100071.58;1719110;82;21042;-82
2021/12/27 00:10:27;;;;;;;19.03;9.90;;;;;;;-3.68;80.21;100073.06;1716161;82;21009;-86
2021/12/27 00:12:56;;;;;;;15.80;8.43;;;;;;;-3.60;80.21;100081.54;1752567;81;20977;-82
2021/12/27 00:15:24;;;;;;;10.00;6.87;;;;;;;-3.57;79.92;100077.28;1750845;82;21499;-73
2021/12/27 00:17:51;;;;;;;9.93;7.43;;;;;;;-3.63;79.72;100077.87;1749891;82;20984;-74
2021/12/27 00:20:19;;;;;;;12.53;7.60;;;;;;;-3.68;79.79;100082.27;1746064;82;20989;-74
2021/12/27 00:22:46;;;;;;;12.07;8.50;;;;;;;-3.80;80.00;100082.64;1750233;81;21006;-78
2021/12/27 00:25:13;;;;;;;15.90;9.00;;;;;;;-3.83;80.14;100085.06;1750683;82;21057;-76
2021/12/27 00:27:41;;;;;;;13.67;9.27;;;;;;;-3.85;80.35;100083.57;1737520;82;21027;-74
2021/12/27 00:30:08;;;;;;;15.83;8.97;;;;;;;-3.85;80.45;100083.57;1750764;82;21070;-75
2021/12/27 00:32:37;;;;;;;16.23;8.90;;;;;;;-3.84;80.47;100081.29;1727883;82;21016;-82
2021/12/27 00:35:05;;;;;;;11.50;9.17;;;;;;;-3.79;80.65;100092.98;1706279;82;21040;-76
2021/12/27 00:37:31;;;;;;;15.20;8.83;;;;;;;-3.67;80.63;100091.81;1749773;82;21109;-77
2021/12/27 00:39:57;;;;;;;12.63;8.17;;;;;;;-3.58;80.42;100097.97;1750081;82;21532;-78
2021/12/27 00:42:24;;;;;;;9.37;7.00;;;;;;;-3.58;80.15;100099.28;1730822;82;21012;-79
2021/12/27 00:44:50;;;;;;;12.20;8.23;;;;;;;-3.59;80.06;100094.51;1750334;82;21058;-78
2021/12/27 00:47:18;;;;;;;14.23;8.00;;;;;;;-3.61;80.06;100085.13;1709720;82;20925;-78
2021/12/27 00:49:44;;;;;;;12.67;8.03;;;;;;;-3.60;80.04;100092.05;1696207;83;21090;-76
2021/12/27 00:52:10;;;;;;;10.87;7.63;;;;;;;-3.56;80.07;100088.97;1723914;82;21259;-80
2021/12/27 00:54:37;;;;;;;10.70;6.67;;;;;;;-3.60;79.72;100090.73;1720394;83;20972;-81
2021/12/27 00:57:04;;;;;;;12.60;7.77;;;;;;;-3.65;79.89;100092.98;1730942;82;21037;-80
2021/12/27 00:59:31;;;;;;;10.60;7.80;;;;;;;-3.63;79.91;100097.59;1750420;80;21086;-77
2021/12/27 01:01:57;;;;;;;8.77;7.57;;;;;;;-3.60;79.87;100090.73;1730983;81;21525;-77
2021/12/27 01:04:23;;;;;;;14.47;8.17;;;;;;;-3.57;79.93;100091.26;1750398;82;21083;-78
2021/12/27 01:06:50;;;;;;;12.03;7.07;;;;;;;-3.53;79.80;100097.03;1705846;82;21024;-76
2021/12/27 01:09:36;;;;;;;12.67;8.70;;;;;;;-3.47;79.71;100095.61;1750420;82;20993;-78
2021/12/27 01:12:09;;;;;;;15.47;7.90;;;;;;;-3.47;79.49;100103.02;1748594;82;21474;-76
2021/12/27 01:14:26;;;;;;;14.47;8.23;;;;;;;-3.45;79.56;100092.36;1748752;82;21056;-73
2021/12/27 01:16:44;;;;;;;12.63;9.07;;;;;;;-3.40;79.63;100089.59;1747689;82;23278;-73
2021/12/27 01:19:11;;;;;;;10.60;7.87;;;;;;;-3.34;79.45;100094.74;1750351;82;20921;-73
2021/12/27 01:21:39;;;;;;;7.77;5.60;;;;;;;-3.30;79.29;100101.34;1750338;81;21033;-77
2021/12/27 01:24:06;;;;;;;13.10;10.20;;;;;;;-3.29;79.03;100101.69;1724889;81;21048;-75
2021/12/27 01:26:32;;;;;;;15.80;8.70;;;;;;;-3.41;78.70;100101.59;1722754;82;22211;-75
2021/12/27 01:29:02;;;;;;;12.70;8.90;;;;;;;-3.60;79.01;100105.99;1737585;82;22059;-77
2021/12/27 01:31:29;;;;;;;9.53;6.40;;;;;;;-3.66;79.35;100101.84;1717831;83;21579;-75
2021/12/27 01:33:56;;;;;;;21.30;12.27;;;;;;;-3.77;79.65;100104.19;1703109;83;20994;-74
2021/12/27 01:36:22;;;;;;;11.53;7.03;;;;;;;-3.78;79.70;100106.47;1732416;82;20988;-75
2021/12/27 01:38:48;;;;;;;24.30;11.43;;;;;;;-3.72;79.85;100112.45;1720150;83;20992;-75
2021/12/27 01:41:17;;;;;;;16.83;9.67;;;;;;;-3.63;79.80;100110.24;1719528;82;21854;-77
2021/12/27 01:43:44;;;;;;;16.80;9.40;;;;;;;-3.73;79.58;100112.11;1748400;81;20989;-77
2021/12/27 01:46:17;;;;;;;12.20;7.33;;;;;;;-3.87;79.74;100123.59;1748965;81;21483;-75
2021/12/27 01:48:48;;;;;;;16.97;9.77;;;;;;;-3.95;80.31;100132.23;1736829;81;21020;-73
2021/12/27 01:51:16;;;;;;;15.73;8.03;;;;;;;-3.97;80.37;100130.22;1739325;82;21094;-73
2021/12/27 01:53:44;;;;;;;16.43;9.07;;;;;;;-3.87;80.51;100131.48;1719427;82;21118;-73
2021/12/27 01:56:12;;;;;;;14.07;7.03;;;;;;;-3.79;80.37;100118.45;1739762;82;20997;-73
2021/12/27 01:58:41;;;;;;;10.17;7.30;;;;;;;-3.75;80.31;100121.13;1748283;82;20988;-79
2021/12/27 02:01:09;;;;;;;11.70;6.83;;;;;;;-3.79;80.03;100122.40;1749003;82;21075;-83
2021/12/27 02:03:37;;;;;;;14.47;8.60;;;;;;;-3.72;80.19;100128.22;1749419;82;21545;-82
2021/12/27 02:06:06;;;;;;;11.30;7.57;;;;;;;-3.65;80.10;100120.09;1748617;81;21285;-80
2021/12/27 02:08:35;;;;;;;14.47;7.83;;;;;;;-3.59;79.91;100129.99;1727442;82;21046;-72
2021/12/27 02:11:02;;;;;;;10.40;8.77;;;;;;;-3.58;79.47;100133.45;1715307;82;21640;-75
2021/12/27 02:13:29;;;;;;;10.73;7.40;;;;;;;-3.68;79.33;100138.77;1719259;82;21048;-72
2021/12/27 02:15:56;;;;;;;13.13;8.47;;;;;;;-3.66;79.60;100138.15;1705164;83;21094;-72
2021/12/27 02:18:22;;;;;;;12.23;7.40;;;;;;;-3.61;79.57;100142.48;1718729;83;21190;-73
2021/12/27 02:20:49;;;;;;;10.43;7.33;;;;;;;-3.62;79.24;100138.67;1707456;84;21093;-74
2021/12/27 02:23:16;;;;;;;14.23;8.03;;;;;;;-3.61;79.40;100134.59;1724479;83;21034;-72
2021/12/27 02:25:48;;;;;;;18.97;7.23;;;;;;;-3.52;79.43;100136.33;1769771;80;20961;-77
2021/12/27 02:28:15;;;;;;;8.88;6.85;;;;;;;-3.42;79.28;100138.89;1746887;81;21076;-75
2021/12/27 02:30:43;;;;;;;13.50;8.17;;;;;;;-3.37;78.98;100145.02;1733660;82;21041;-86
2021/12/27 02:33:10;;;;;;;10.47;7.73;;;;;;;-3.32;79.00;100137.50;1731058;82;21048;-82
2021/12/27 02:35:42;;;;;;;13.80;7.53;;;;;;;-3.22;78.85;100143.03;1750664;82;20952;-77
2021/12/27 02:38:11;;;;;;;10.60;7.40;;;;;;;-3.20;78.50;100142.86;1750612;81;21596;-83
2021/12/27 02:40:38;;;;;;;11.37;7.57;;;;;;;-3.22;78.25;100140.41;1726623;82;21022;-75
2021/12/27 02:43:12;;;;;;;10.43;8.23;;;;;;;-3.27;78.09;100143.97;1750905;82;21942;-79
2021/12/27 02:45:44;;;;;;;11.75;7.83;;;;;;;-3.20;78.19;100144.17;1751050;81;20975;-75
2021/12/27 02:48:12;;;;;;;15.93;7.87;;;;;;;-3.13;77.95;100150.50;1750441;82;21017;-79
2021/12/27 02:50:41;;;;;;;14.93;8.63;;;;;;;-3.10;77.80;100144.45;1750510;81;21500;-76
2021/12/27 02:53:07;;;;;;;12.60;8.23;;;;;;;-3.09;77.51;100145.27;1750620;82;21019;-76
2021/12/27 02:55:34;;;;;;;10.40;7.40;;;;;;;-3.06;77.50;100148.91;1750195;82;21143;-80
2021/12/27 02:58:00;;;;;;;11.53;7.60;;;;;;;-2.96;77.39;100151.45;1750955;82;21005;-78
2021/12/27 03:00:34;;;;;;;12.27;6.57;;;;;;;-2.99;76.92;100139.93;1749680;81;21016;-76
2021/12/27 03:03:00;;;;;;;11.77;7.63;;;;;;;-3.05;76.92;100142.67;1749056;81;20941;-83
2021/12/27 03:05:28;;;;;;;12.23;8.03;;;;;;;-3.15;76.73;100151.95;1705658;82;20989;-81
2021/12/27 03:07:55;;;;;;;17.47;8.80;;;;;;;-3.16;76.90;100148.16;1730963;82;21161;-77
2021/12/27 03:10:27;;;;;;;9.93;6.50;;;;;;;-3.15;76.85;100156.39;1750007;82;20959;-80
2021/12/27 03:12:54;;;;;;;11.37;7.30;;;;;;;-3.12;76.80;100154.80;1750703;82;21030;-81
2021/12/27 03:15:22;;;;;;;13.50;9.57;;;;;;;-3.22;76.53;100154.88;1697505;83;21011;-86
2021/12/27 03:17:52;;;;;;;12.00;7.93;;;;;;;-3.31;76.72;100150.48;1751639;82;21060;-85
2021/12/27 03:20:21;;;;;;;10.27;7.77;;;;;;;-3.34;76.83;100155.22;1703730;82;21211;-77
2021/12/27 03:22:48;;;;;;;12.20;7.63;;;;;;;-3.28;77.21;100158.58;1746548;81;20989;-78
2021/12/27 03:25:17;;;;;;;13.67;9.10;;;;;;;-3.19;77.13;100156.36;1697963;83;21038;-79
2021/12/27 03:27:44;;;;;;;12.87;7.57;;;;;;;-3.14;76.85;100161.99;1705561;83;21766;-80
2021/12/27 03:30:21;;;;;;;15.13;8.00;;;;;;;-3.27;76.54;100161.55;1745742;82;21051;-78
2021/12/27 03:32:48;;;;;;;11.93;7.70;;;;;;;-3.42;76.73;100161.72;1724517;82;21030;-79
2021/12/27 03:35:18;;;;;;;12.30;7.60;;;;;;;-3.56;76.93;100168.31;1694052;83;21007;-80
2021/12/27 03:37:50;;;;;;;10.00;7.17;;;;;;;-3.66;77.27;100171.00;1742200;82;20954;-79
2021/12/27 03:40:17;;;;;;;17.60;7.60;;;;;;;-3.67;77.58;100171.14;1714563;83;20992;-80
2021/12/27 03:42:49;;;;;;;13.53;7.07;;;;;;;-3.60;77.80;100173.53;1715535;82;21050;-83
2021/12/27 03:45:13;;;;;;;13.47;7.00;;;;;;;-3.48;77.92;100184.17;1725440;82;21198;-84
2021/12/27 03:47:39;;;;;;;13.73;7.93;;;;;;;-3.55;77.61;100183.92;1745628;82;21478;-79
2021/12/27 03:50:06;;;;;;;11.90;9.30;;;;;;;-3.66;77.79;100188.09;1745616;81;21556;-81
2021/12/27 03:52:34;;;;;;;11.53;9.03;;;;;;;-3.74;78.07;100180.08;1700719;82;20999;-79
2021/12/27 03:55:01;;;;;;;11.30;8.27;;;;;;;-3.70;78.29;100191.16;1716053;83;20985;-79
2021/12/27 03:57:31;;;;;;;14.00;8.70;;;;;;;-3.76;78.30;100187.78;1742517;80;21320;-79
2021/12/27 04:02:43;;;;;;;13.37;7.87;;;;;;;-3.89;78.72;100188.13;1724455;82;21009;-77
2021/12/27 04:05:10;;;;;;;9.53;7.20;;;;;;;-3.99;79.06;100185.55;1745677;82;21051;-78
2021/12/27 04:07:38;;;;;;;12.70;7.83;;;;;;;-4.03;79.41;100191.23;1746028;81;21611;-78
2021/12/27 04:10:08;;;;;;;8.70;7.23;;;;;;;-4.07;79.65;100187.22;1724605;82;21126;-80
2021/12/27 04:12:35;;;;;;;11.37;7.40;;;;;;;-4.05;79.83;100196.63;1725184;82;20924;-77
2021/12/27 04:15:06;;;;;;;8.73;6.83;;;;;;;-4.06;79.88;100196.76;1735875;82;21584;-76
2021/12/27 04:17:33;;;;;;;11.83;8.40;;;;;;;-4.11;80.04;100202.45;1701767;82;21129;-79
2021/12/27 04:19:59;;;;;;;9.43;6.57;;;;;;;-4.10;80.21;100200.17;1745747;82;21055;-77
2021/12/27 04:22:26;;;;;;;11.60;6.73;;;;;;;-4.12;80.29;100201.27;1737109;81;22472;-78
2021/12/27 04:24:52;;;;;;;10.63;7.67;;;;;;;-4.15;80.40;100198.94;1702105;82;21611;-78
2021/12/27 04:27:20;;;;;;;15.57;10.37;;;;;;;-4.17;80.66;100198.27;1745508;82;21489;-77
2021/12/27 04:29:48;;;;;;;14.87;9.67;;;;;;;-4.10;80.78;100204.59;1719231;82;21046;-79
2021/12/27 04:32:14;;;;;;;14.13;8.80;;;;;;;-4.06;80.87;100208.09;1740083;82;21062;-79
2021/12/27 04:34:41;;;;;;;13.43;10.27;;;;;;;-3.99;81.02;100217.55;1748519;82;21661;-76
2021/12/27 04:37:07;;;;;;;13.27;9.53;;;;;;;-3.95;80.80;100217.60;1748830;81;21718;-75
2021/12/27 04:39:35;;;;;;;14.63;9.70;;;;;;;-4.01;80.60;100221.62;1719698;82;21516;-75
2021/12/27 04:42:04;;;;;;;15.43;9.63;;;;;;;-3.99;80.69;100224.13;1703612;83;21076;-76
2021/12/27 04:44:31;;;;;;;13.23;9.57;;;;;;;-3.95;80.73;100224.17;1675684;83;21036;-77
2021/12/27 04:46:57;;;;;;;15.13;11.43;;;;;;;-3.89;80.60;100230.66;1688960;84;21202;-76
2021/12/27 04:49:23;;;;;;;12.63;9.33;;;;;;;-3.95;80.49;100235.99;1707646;84;21074;-75
2021/12/27 04:51:49;;;;;;;19.23;10.13;;;;;;;-3.97;80.54;100238.75;1685526;83;20953;-76
2021/12/27 04:54:16;;;;;;;18.97;10.93;;;;;;;-3.99;80.54;100249.08;1718026;82;21021;-79
2021/12/27 04:56:42;;;;;;;11.73;9.03;;;;;;;-4.09;80.60;100245.16;1699271;83;20999;-78
2021/12/27 04:59:09;;;;;;;12.00;9.37;;;;;;;-4.13;80.83;100252.16;1738539;82;21139;-79
2021/12/27 05:01:35;;;;;;;12.40;9.27;;;;;;;-4.13;80.84;100246.91;1724602;83;21028;-78
2021/12/27 05:04:02;;;;;;;13.87;10.73;;;;;;;-4.14;80.81;100253.95;1725046;83;21056;-78
2021/12/27 05:06:28;;;;;;;22.20;14.13;;;;;;;-4.12;80.88;100249.85;1739031;82;22200;-76
2021/12/27 05:08:56;;;;;;;22.67;11.83;;;;;;;-4.11;80.91;100248.89;1739164;82;21035;-80
2021/12/27 05:11:23;;;;;;;26.50;14.10;;;;;;;-3.97;81.08;100249.74;1739720;82;21167;-79
2021/12/27 05:13:49;;;;;;;15.53;11.33;;;;;;;-3.89;80.86;100252.98;1711099;82;20964;-80
2021/12/27 05:16:17;;;;;;;13.73;8.53;;;;;;;-3.86;80.68;100255.31;1730943;82;20983;-77
2021/12/27 05:18:45;;;;;;;12.27;9.40;;;;;;;-3.86;80.39;100264.51;1724674;83;20993;-76
2021/12/27 05:21:11;;;;;;;21.00;11.97;;;;;;;-3.87;80.35;100269.41;1724521;83;21080;-78
2021/12/27 05:23:39;;;;;;;23.40;13.60;;;;;;;-3.83;80.58;100269.47;1738675;82;21047;-77
2021/12/27 05:26:05;;;;;;;26.67;15.30;;;;;;;-3.77;80.46;100267.59;1702124;83;21678;-77
2021/12/27 05:28:33;;;;;;;22.17;13.27;;;;;;;-3.70;80.28;100267.37;1712357;83;21509;-79
2021/12/27 05:30:59;;;;;;;14.87;10.67;;;;;;;-3.69;80.13;100271.14;1705833;82;21072;-76
2021/12/27 05:33:26;;;;;;;16.60;10.30;;;;;;;-3.70;80.08;100276.56;1750530;82;21058;-79
2021/12/27 05:35:52;;;;;;;13.53;10.67;;;;;;;-3.79;79.77;100282.69;1704747;82;21108;-78
2021/12/27 05:38:19;;;;;;;15.50;9.93;;;;;;;-3.85;79.90;100279.31;1750329;82;20955;-78
2021/12/27 05:40:45;;;;;;;11.17;9.27;;;;;;;-3.89;79.88;100285.83;1750343;82;21011;-78
2021/12/27 05:43:11;;;;;;;13.63;9.60;;;;;;;-3.85;80.02;100288.02;1700366;84;21056;-78
2021/12/27 05:45:37;;;;;;;15.47;11.43;;;;;;;-3.87;79.94;100289.95;1681636;83;21027;-77
2021/12/27 05:48:05;;;;;;;15.80;10.30;;;;;;;-3.86;80.01;100289.47;1750681;80;21058;-77
2021/12/27 05:50:31;;;;;;;18.93;11.77;;;;;;;-3.85;80.00;100291.97;1726693;82;21077;-78
2021/12/27 05:52:58;;;;;;;16.23;11.37;;;;;;;-3.88;79.96;100292.23;1730883;82;21025;-77
2021/12/27 05:55:24;;;;;;;12.90;10.50;;;;;;;-3.94;80.07;100290.67;1739570;82;21115;-79
2021/12/27 05:57:50;;;;;;;12.17;9.07;;;;;;;-3.95;80.28;100292.48;1744483;80;21055;-75
2021/12/27 06:00:17;;;;;;;15.00;10.47;;;;;;;-3.95;80.30;100297.73;1750679;82;21129;-78
2021/12/27 06:02:43;;;;;;;11.37;8.67;;;;;;;-4.03;80.43;100307.61;1750443;81;20991;-77
2021/12/27 06:05:11;;;;;;;14.47;8.13;;;;;;;-4.06;80.49;100308.39;1737210;82;21090;-80
2021/12/27 06:07:38;;;;;;;12.87;9.97;;;;;;;-4.04;80.53;100311.23;1727243;82;21027;-77
2021/12/27 06:10:06;;;;;;;14.77;9.97;;;;;;;-4.08;80.53;100321.69;1730798;82;21083;-78
2021/12/27 06:12:33;;;;;;;13.70;10.90;;;;;;;-4.10;80.62;100317.52;1740106;82;21152;-78
2021/12/27 06:14:59;;;;;;;12.23;8.13;;;;;;;-4.12;80.65;100322.91;1749761;81;21648;-77
2021/12/27 06:17:26;;;;;;;14.73;8.20;;;;;;;-4.09;80.79;100323.12;1750427;81;21686;-75
2021/12/27 06:19:52;;;;;;;15.37;9.73;;;;;;;-4.16;80.86;100320.22;1726818;82;21094;-78
2021/12/27 06:22:18;;;;;;;11.23;8.00;;;;;;;-4.17;80.95;100324.32;1750521;81;20944;-77
2021/12/27 06:24:45;;;;;;;9.63;8.63;;;;;;;-4.22;81.05;100321.28;1747647;81;21166;-80
2021/12/27 06:27:12;;;;;;;11.43;7.37;;;;;;;-4.23;81.27;100324.39;1736564;82;21060;-80
2021/12/27 06:29:38;;;;;;;11.63;7.80;;;;;;;-4.22;81.24;100322.09;1749305;81;21021;-80
2021/12/27 06:32:05;;;;;;;14.30;10.43;;;;;;;-4.26;81.35;100323.81;1739898;81;20993;-77
2021/12/27 06:34:31;;;;;;;18.27;9.80;;;;;;;-4.33;81.50;100327.50;1719599;82;21061;-77
2021/12/27 06:36:58;;;;;;;10.50;7.83;;;;;;;-4.37;81.82;100331.38;1716919;83;21127;-77
2021/12/27 06:39:26;;;;;;;10.30;8.07;;;;;;;-4.34;82.04;100333.72;1741875;82;21024;-79
2021/12/27 06:41:52;;;;;;;11.07;8.23;;;;;;;-4.27;82.02;100332.69;1748905;82;20894;-79
2021/12/27 06:44:18;;;;;;;11.33;7.53;;;;;;;-4.21;81.92;100336.05;1731293;82;21522;-80
2021/12/27 06:46:45;;;;;;;9.83;6.97;;;;;;;-4.19;81.71;100340.20;1748845;82;21529;-80
2021/12/27 06:49:11;;;;;;;14.53;8.73;;;;;;;-4.22;81.74;100343.61;1707691;84;22089;-78
2021/12/27 06:51:39;;;;;;;17.23;9.93;;;;;;;-4.28;81.90;100344.15;1724315;83;21063;-78
2021/12/27 06:54:06;;;;;;;13.20;8.70;;;;;;;-4.36;82.43;100344.02;1718430;82;20952;-78
2021/12/27 06:56:32;;;;;;;13.53;9.67;;;;;;;-4.42;82.62;100346.72;1717506;83;20963;-79
2021/12/27 06:58:59;;;;;;;12.93;9.20;;;;;;;-4.41;83.10;100341.78;1738635;82;21046;-80
2021/12/27 07:01:25;;;;;;;11.20;8.47;;;;;;;-4.34;83.66;100342.91;1709086;82;21190;-82
2021/12/27 07:03:51;;;;;;;17.73;10.13;;;;;;;-4.33;83.48;100343.73;1711881;83;20919;-79
2021/12/27 07:06:18;;;;;;;15.10;10.77;;;;;;;-4.32;83.44;100342.77;1738562;82;20981;-78
2021/12/27 07:08:47;;;;;;;11.40;8.97;;;;;;;-4.30;83.45;100346.91;1724412;83;21067;-77
2021/12/27 07:11:12;;;;;;;11.43;8.60;;;;;;;-4.26;83.56;100354.84;1738759;82;20990;-81
2021/12/27 07:13:39;;;;;;;16.93;11.40;;;;;;;-4.16;83.49;100355.67;1724286;83;21143;-79
2021/12/27 07:16:05;;;;;;;9.40;8.13;;;;;;;-4.05;83.25;100354.70;1738592;82;21028;-77
2021/12/27 07:18:31;;;;;;;14.93;8.83;;;;;;;-3.96;83.09;100356.48;1724466;83;21020;-78
2021/12/27 07:20:58;;;;;;;14.63;10.33;;;;;;;-3.93;82.89;100352.77;1703636;83;21066;-78
2021/12/27 07:23:24;;;;;;;13.67;9.90;;;;;;;-3.98;82.30;100354.50;1738185;82;21055;-79
2021/12/27 07:25:51;;;;;;;13.40;9.80;;;;;;;-4.04;82.28;100356.37;1738912;82;21483;-76
2021/12/27 07:28:18;;;;;;;12.33;9.20;;;;;;;-4.04;82.19;100358.52;1738740;81;21052;-79
2021/12/27 07:30:44;;;;;;;15.60;9.13;;;;;;;-4.07;82.00;100359.25;1756287;81;21022;-77
2021/12/27 07:33:11;;;;;;;13.00;9.97;;;;;;;-4.16;82.11;100364.87;1755239;81;21133;-78
2021/12/27 07:35:37;;;;;;;13.43;10.43;;;;;;;-4.21;82.32;100374.12;1756253;81;21509;-78
2021/12/27 07:38:03;;;;;;;15.60;10.37;;;;;;;-4.21;82.54;100369.70;1755761;81;21581;-78
2021/12/27 07:40:30;;;;;;;10.47;8.87;;;;;;;-4.17;82.42;100365.83;1736573;82;21585;-78
2021/12/27 07:42:57;;;;;;;10.57;8.07;;;;;;;-4.24;82.27;100373.93;1754515;81;21038;-77
2021/12/27 07:45:27;;;;;;;13.20;9.77;;;;;;;-4.27;82.42;100374.70;1736421;81;21130;-77
2021/12/27 07:47:53;;;;;;;9.63;8.63;;;;;;;-4.37;82.53;100376.48;1724229;82;21119;-77
2021/12/27 07:50:20;;;;;;;13.33;8.70;;;;;;;-4.34;82.90;100373.58;1713687;83;21067;-79
2021/12/27 07:52:46;;;;;;;14.43;9.40;;;;;;;-4.33;82.92;100387.89;1726191;81;20991;-81
2021/12/27 07:55:12;;;;;;;13.67;10.80;;;;;;;-4.37;82.89;100390.92;1726877;81;20975;-84
2021/12/27 07:57:39;;;;;;;8.90;7.77;;;;;;;-4.38;83.14;100396.66;1741119;81;20982;-79
2021/12/27 08:00:07;;;;;;;10.33;7.87;;;;;;;-4.29;83.23;100393.69;1755958;81;21050;-81
2021/12/27 08:02:37;;;;;;;9.97;8.63;;;;;;;-4.25;82.98;100396.37;1736961;82;21609;-84
2021/12/27 08:05:04;;;;;;;7.70;6.90;;;;;;;-4.23;82.86;100391.83;1754874;81;21685;-81
2021/12/27 08:07:31;;;;;;;14.57;8.73;;;;;;;-4.22;82.67;100386.93;1736953;82;20990;-79
2021/12/27 08:09:57;;;;;;;13.00;9.37;;;;;;;-4.23;82.64;100389.20;1756235;81;21030;-77
2021/12/27 08:12:26;;;;;;;10.60;8.50;;;;;;;-4.22;82.59;100392.19;1737771;81;21113;-78
2021/12/27 08:14:54;;;;;;;11.93;9.07;;;;;;;-4.24;82.52;100385.75;1742413;81;21333;-81
2021/12/27 08:17:22;;;;;;;13.13;9.47;;;;;;;-4.31;82.57;100385.11;1756381;81;21575;-78
2021/12/27 08:19:50;;;;;;;13.83;11.33;;;;;;;-4.32;82.81;100381.68;1755908;80;20965;-79
2021/12/27 08:22:18;;;;;;;10.43;9.17;;;;;;;-4.32;83.02;100384.30;1755951;81;20988;-82
2021/12/27 08:24:45;;;;;;;17.13;10.53;;;;;;;-4.30;83.29;100393.33;1755671;80;21548;-77
2021/12/27 08:27:11;;;;;;;9.77;7.73;;;;;;;-4.34;83.16;100394.58;1745180;81;21513;-79
2021/12/27 08:29:38;;;;;;;13.50;10.20;;;;;;;-4.36;83.10;100399.95;1753102;81;21049;-78
2021/12/27 08:32:06;;;;;;;10.87;8.50;;;;;;;-4.38;83.28;100395.83;1740649;82;21020;-81
2021/12/27 08:34:32;;;;;;;18.30;10.13;;;;;;;-4.41;83.28;100398.22;1718915;82;21066;-81
2021/12/27 08:36:59;;;;;;;12.70;9.10;;;;;;;-4.38;83.47;100390.58;1707830;83;21065;-79
2021/12/27 08:39:26;;;;;;;12.73;10.40;;;;;;;-4.41;83.43;100391.18;1725004;82;21922;-77
2021/12/27 08:41:52;;;;;;;13.83;10.53;;;;;;;-4.41;83.62;100387.25;1749139;81;21518;-76
2021/12/27 08:44:20;;;;;;;15.03;11.33;;;;;;;-4.29;84.32;100387.13;1730681;82;21659;-77
2021/12/27 08:46:48;;;;;;;18.27;12.80;;;;;;;-4.16;84.53;100385.05;1749143;81;20996;-81
2021/12/27 08:49:14;;;;;;;15.23;11.30;;;;;;;-4.11;84.40;100381.52;1748842;81;21587;-79
2021/12/27 08:51:40;;;;;;;13.53;10.70;;;;;;;-4.06;84.36;100383.25;1738742;82;21573;-81
2021/12/27 08:54:06;;;;;;;12.90;9.50;;;;;;;-3.99;84.29;100378.63;1692863;84;20975;-78
2021/12/27 08:56:34;;;;;;;19.63;12.83;;;;;;;-4.00;83.99;100376.96;1719648;82;21122;-77
2021/12/27 08:59:00;;;;;;;16.33;11.97;;;;;;;-3.93;83.95;100376.41;1743063;82;21076;-77
2021/12/27 09:01:28;;;;;;;16.87;12.97;;;;;;;-3.84;83.81;100375.08;1748909;82;21017;-76
2021/12/27 09:03:55;;;;;;;21.73;11.93;;;;;;;-3.82;83.23;100386.27;1748186;81;21930;-77
2021/12/27 09:06:21;;;;;;;19.43;13.67;;;;;;;-3.89;82.98;100381.24;1738500;82;21615;-81
2021/12/27 09:08:49;;;;;;;21.43;12.37;;;;;;;-3.97;82.78;100374.52;1738354;82;21494;-79
2021/12/27 09:11:15;;;;;;;14.83;10.73;;;;;;;-4.09;82.83;100384.84;1738625;82;21064;-77
2021/12/27 09:13:41;;;;;;;20.80;14.43;;;;;;;-4.18;82.93;100378.64;1737369;81;21529;-78
2021/12/27 09:16:10;;;;;;;19.27;14.00;;;;;;;-4.25;83.22;100378.00;1748882;81;21752;-77
2021/12/27 09:18:38;;;;;;;18.40;13.60;;;;;;;-4.26;83.50;100385.05;1748916;81;21051;-78
2021/12/27 09:21:07;;;;;;;24.40;15.60;;;;;;;-4.20;83.80;100382.35;1748985;81;20969;-80
2021/12/27 09:23:34;;;;;;;20.80;14.73;;;;;;;-4.15;83.74;100380.14;1748445;82;20948;-78
2021/12/27 09:26:00;;;;;;;18.10;13.70;;;;;;;-4.12;83.75;100378.06;1738627;82;21122;-78
2021/12/27 09:28:26;;;;;;;21.67;12.47;;;;;;;-4.10;83.63;100377.45;1724742;83;21798;-79
2021/12/27 09:30:53;;;;;;;17.43;12.40;;;;;;;-4.09;83.54;100379.59;1716915;82;21715;-79
2021/12/27 09:33:20;;;;;;;20.23;14.30;;;;;;;-4.13;83.36;100376.91;1720208;83;21111;-80
2021/12/27 09:35:50;;;;;;;18.97;12.73;;;;;;;-4.22;83.31;100373.29;1699322;82;21365;-81
2021/12/27 09:38:16;;;;;;;14.83;12.43;;;;;;;-4.19;83.63;100370.41;1723434;82;21034;-84
2021/12/27 09:40:42;;;;;;;16.30;13.87;;;;;;;-4.20;83.69;100371.38;1712546;83;21062;-83
2021/12/27 09:43:09;;;;;;;14.77;12.67;;;;;;;-4.23;83.89;100363.78;1686700;83;21084;-84
2021/12/27 09:45:35;;;;;;;18.67;14.13;;;;;;;-4.21;83.96;100366.25;1715510;83;21113;-85
2021/12/27 09:48:03;;;;;;;17.33;15.37;;;;;;;-4.21;84.09;100358.37;1685515;85;21179;-85
2021/12/27 09:50:46;;;;;;;16.63;12.57;;;;;;;-4.18;84.27;100363.36;1666011;85;21133;-84
2021/12/27 09:53:13;;;;;;;21.12;16.23;;;;;;;-4.09;84.41;100359.42;1686033;83;22418;-89
2021/12/27 09:55:39;;;;;;;17.73;12.13;;;;;;;-4.06;84.23;100364.86;1715355;82;20973;-82
2021/12/27 09:58:06;;;;;;;19.20;12.27;;;;;;;-4.07;84.13;100370.59;1716146;81;21102;-84
2021/12/27 10:00:34;;;;;;;17.30;11.90;;;;;;;-4.06;83.94;100362.23;1711186;82;21814;-79
2021/12/27 10:03:00;;;;;;;21.93;12.73;;;;;;;-4.13;83.81;100363.77;1715600;83;21108;-81
2021/12/27 10:05:28;;;;;;;15.67;13.97;;;;;;;-4.32;83.85;100369.86;1722972;82;21035;-83
2021/12/27 10:07:58;;;;;;;19.80;13.30;;;;;;;-4.42;84.21;100365.09;1718201;82;21044;-82
2021/12/27 10:10:25;;;;;;;17.70;12.87;;;;;;;-4.45;84.78;100371.42;1710983;81;21024;-80
2021/12/27 10:12:51;;;;;;;18.70;13.77;;;;;;;-4.49;84.78;100372.67;1716074;82;21109;-82
2021/12/27 10:15:22;;;;;;;18.67;13.73;;;;;;;-4.52;85.26;100372.95;1713111;82;21714;-82
2021/12/27 10:17:49;;;;;;;21.20;14.23;;;;;;;-4.57;85.67;100376.95;1691500;83;22042;-78
2021/12/27 10:20:19;;;;;;;16.83;13.73;;;;;;;-4.68;85.96;100377.06;1694777;83;21612;-80
2021/12/27 10:22:50;;;;;;;16.03;14.10;;;;;;;-4.73;86.19;100376.16;1681460;84;21029;-81
2021/12/27 10:25:23;;;;;;;22.73;15.33;;;;;;;-4.75;87.14;100380.73;1667750;83;20996;-83
2021/12/27 10:27:54;;;;;;;22.85;15.63;;;;;;;-4.75;87.41;100378.58;1690245;83;21068;-85
2021/12/27 10:30:27;;;;;;;22.40;14.40;;;;;;;-4.74;87.58;100379.73;1717957;82;21163;-81
2021/12/27 10:33:22;;;;;;;23.30;15.73;;;;;;;-4.70;87.74;100381.63;1749651;81;21007;-80
2021/12/27 10:35:52;;;;;;;20.20;14.20;;;;;;;-4.71;87.75;100370.30;1690374;84;21008;-83
2021/12/27 10:38:28;;;;;;;14.70;13.00;;;;;;;-4.62;87.88;100376.53;1741941;82;20991;-84
2021/12/27 10:41:00;;;;;;;26.13;17.70;;;;;;;-4.54;87.89;100370.94;1750551;82;21078;-81
2021/12/27 10:43:45;;;;;;;22.67;16.33;;;;;;;-4.52;87.85;100372.13;1730937;82;21138;-84
2021/12/27 10:46:17;;;;;;;20.27;14.90;;;;;;;-4.42;87.97;100378.22;1736304;82;21171;-86
2021/12/27 10:48:51;;;;;;;30.90;18.50;;;;;;;-4.44;87.69;100381.45;1721412;83;20931;-83
2021/12/27 10:51:17;;;;;;;20.60;14.10;;;;;;;-4.41;87.78;100385.09;1725847;82;21608;-85
2021/12/27 10:53:58;;;;;;;22.50;17.27;;;;;;;-4.38;87.59;100390.58;1726102;82;21019;-80
2021/12/27 10:56:27;;;;;;;19.90;17.70;;;;;;;-4.38;87.52;100386.16;1723377;82;21540;-84
2021/12/27 10:58:58;;;;;;;27.73;19.33;;;;;;;-4.27;87.68;100380.78;1751285;82;20971;-83
2021/12/27 11:01:27;;;;;;;23.10;18.00;;;;;;;-4.17;87.58;100382.09;1717607;83;21053;-82
2021/12/27 11:03:57;;;;;;;26.33;16.77;;;;;;;-4.16;87.30;100391.61;1712625;83;21014;-84
2021/12/27 11:06:27;;;;;;;21.80;16.43;;;;;;;-4.25;87.10;100385.39;1712894;83;21092;-85
2021/12/27 11:08:54;;;;;;;25.77;16.90;;;;;;;-4.31;87.25;100383.31;1742087;82;21530;-84
2021/12/27 11:11:24;;;;;;;27.17;17.73;;;;;;;-4.30;87.42;100379.73;1706630;82;21565;-85
2021/12/27 11:13:54;;;;;;;18.67;14.37;;;;;;;-4.22;87.50;100382.48;1734262;82;21182;-85
2021/12/27 11:16:21;;;;;;;23.80;18.70;;;;;;;-4.17;87.35;100386.03;1710201;82;22477;-89
2021/12/27 11:18:47;;;;;;;26.80;16.63;;;;;;;-4.21;87.37;100382.84;1762742;80;21533;-87